Time;durP1;ratioP1;P1;durP2;ratioP2;P2;SDS_P1;SDS_P2;PMS_P1;PMS_P2;Temp;Humidity;BMP_temperature;BMP_pressure;BME280_temperature;BME280_humidity;BME280_pressure;Samples;Min_cycle;Max_cycle;Signal;HPM_P1;HPM_P2
2023/03/06 00:00:31;;;;;;;13.07;8.70;;;3.30;99.90;;;;;;4994122;28;20532;-74
2023/03/06 00:02:57;;;;;;;14.53;9.37;;;3.30;99.90;;;;;;4978582;28;20432;-74
2023/03/06 00:05:23;;;;;;;14.13;8.90;;;3.30;99.90;;;;;;4987751;28;20447;-74
2023/03/06 00:07:49;;;;;;;14.53;9.77;;;3.30;99.90;;;;;;4992503;28;20214;-75
2023/03/06 00:10:17;;;;;;;15.83;9.50;;;3.30;99.90;;;;;;4993889;28;20186;-76
2023/03/06 00:12:43;;;;;;;16.63;9.43;;;3.30;99.90;;;;;;4981628;28;20223;-74
2023/03/06 00:15:09;;;;;;;15.60;8.60;;;3.30;99.90;;;;;;4986051;28;20443;-74
2023/03/06 00:17:35;;;;;;;17.00;8.80;;;3.30;99.90;;;;;;4975878;28;20204;-75
2023/03/06 00:20:01;;;;;;;14.47;9.50;;;3.30;99.90;;;;;;4993501;28;20444;-76
2023/03/06 00:22:26;;;;;;;17.17;8.37;;;3.20;99.90;;;;;;4993706;28;20217;-73
2023/03/06 00:24:53;;;;;;;15.50;8.87;;;3.30;99.90;;;;;;4991409;28;20202;-74
2023/03/06 00:27:19;;;;;;;14.50;11.13;;;3.20;99.90;;;;;;4988534;28;20211;-73
2023/03/06 00:29:47;;;;;;;15.20;9.60;;;3.20;99.90;;;;;;4993198;28;20810;-74
2023/03/06 00:32:14;;;;;;;15.67;9.50;;;3.20;99.90;;;;;;4993374;28;20540;-73
2023/03/06 00:34:39;;;;;;;23.27;9.80;;;3.20;99.90;;;;;;4993163;28;20453;-74
2023/03/06 00:37:05;;;;;;;15.13;10.13;;;3.10;99.90;;;;;;4986335;28;20444;-74
2023/03/06 00:39:30;;;;;;;17.70;9.30;;;3.10;99.90;;;;;;4992020;28;20194;-74
2023/03/06 00:41:55;;;;;;;15.23;8.43;;;3.20;99.90;;;;;;4992906;28;20309;-73
2023/03/06 00:44:21;;;;;;;18.03;8.50;;;3.10;99.90;;;;;;4993188;28;20198;-74
2023/03/06 00:46:46;;;;;;;14.40;8.10;;;3.10;99.90;;;;;;4985850;28;20212;-74
2023/03/06 00:49:12;;;;;;;14.67;8.83;;;3.10;99.90;;;;;;4993009;28;20648;-74
2023/03/06 00:51:37;;;;;;;15.80;8.70;;;3.10;99.90;;;;;;4992805;28;20201;-74
2023/03/06 00:54:03;;;;;;;11.33;8.40;;;3.10;99.90;;;;;;4992475;28;20666;-74
2023/03/06 00:56:28;;;;;;;18.07;9.47;;;3.10;99.90;;;;;;4986039;28;20225;-74
2023/03/06 00:58:54;;;;;;;16.17;8.17;;;3.00;99.90;;;;;;4991419;28;20243;-74
2023/03/06 01:01:19;;;;;;;15.40;9.37;;;3.00;99.90;;;;;;4992822;28;20217;-74
2023/03/06 01:03:45;;;;;;;21.80;8.70;;;3.00;99.90;;;;;;4991177;28;20191;-74
2023/03/06 01:06:11;;;;;;;17.50;7.77;;;3.00;99.90;;;;;;4986172;28;20190;-74
2023/03/06 01:08:36;;;;;;;15.90;9.80;;;3.00;99.90;;;;;;4992589;28;20665;-74
2023/03/06 01:11:02;;;;;;;15.03;9.07;;;3.00;99.90;;;;;;4992375;28;20200;-74
2023/03/06 01:13:27;;;;;;;15.80;8.97;;;3.00;99.90;;;;;;4992836;28;20188;-74
2023/03/06 01:15:53;;;;;;;17.50;9.40;;;3.00;99.90;;;;;;4985775;28;20198;-74
2023/03/06 01:18:18;;;;;;;15.43;9.37;;;3.00;99.90;;;;;;4992573;28;20196;-74
2023/03/06 01:20:44;;;;;;;12.10;8.80;;;2.90;99.90;;;;;;4981819;28;20571;-73
2023/03/06 01:23:09;;;;;;;12.27;8.57;;;2.90;99.90;;;;;;4992278;28;20289;-74
2023/03/06 01:25:35;;;;;;;19.07;10.03;;;2.90;99.90;;;;;;4984746;28;20628;-73
2023/03/06 01:28:00;;;;;;;18.37;8.67;;;2.90;99.90;;;;;;4975992;28;20216;-73
2023/03/06 01:30:26;;;;;;;12.67;8.43;;;2.90;99.90;;;;;;4992159;28;20224;-74
2023/03/06 01:32:51;;;;;;;20.60;11.30;;;2.90;99.90;;;;;;4991760;28;20313;-74
2023/03/06 01:35:17;;;;;;;18.67;8.77;;;3.00;99.90;;;;;;4991111;28;20537;-74
2023/03/06 01:37:42;;;;;;;16.47;8.50;;;2.90;99.90;;;;;;4983885;28;20195;-74
2023/03/06 01:40:09;;;;;;;15.17;8.87;;;2.90;99.90;;;;;;4988325;28;20217;-74
2023/03/06 01:42:35;;;;;;;16.07;10.57;;;2.90;99.90;;;;;;4992070;28;20213;-74
2023/03/06 01:45:13;;;;;;;17.50;9.20;;;2.90;99.90;;;;;;4988480;28;20436;-74
2023/03/06 01:47:38;;;;;;;16.97;9.90;;;2.90;99.90;;;;;;4980124;28;20235;-74
2023/03/06 01:50:07;;;;;;;12.97;8.90;;;2.80;99.90;;;;;;4991804;28;20513;-74
2023/03/06 01:52:38;;;;;;;17.97;9.10;;;2.90;99.90;;;;;;4991944;28;20202;-74
2023/03/06 01:55:08;;;;;;;23.53;10.40;;;2.90;99.90;;;;;;4975593;28;20851;-73
2023/03/06 01:57:39;;;;;;;17.20;9.73;;;2.80;99.90;;;;;;4983750;28;20430;-74
2023/03/06 03:30:42;;;;;;;12.77;8.70;;;2.50;99.90;;;;;;6021613;22;20382;-69
2023/03/06 03:33:08;;;;;;;11.90;8.60;;;2.50;99.90;;;;;;5002356;28;20436;-72
2023/03/06 03:35:34;;;;;;;14.30;7.40;;;2.50;99.90;;;;;;5014899;28;20439;-73
2023/03/06 03:37:59;;;;;;;14.00;7.90;;;2.50;99.90;;;;;;5009048;28;20435;-73
2023/03/06 03:40:25;;;;;;;15.37;8.80;;;2.40;99.90;;;;;;5010459;28;20196;-73
2023/03/06 03:42:51;;;;;;;13.87;8.40;;;2.40;99.90;;;;;;5009960;28;20970;-73
2023/03/06 03:45:16;;;;;;;14.33;8.97;;;2.40;99.90;;;;;;5008309;28;20212;-72
2023/03/06 03:47:42;;;;;;;14.97;9.23;;;2.30;99.90;;;;;;5007785;28;20249;-73
2023/03/06 03:50:09;;;;;;;17.73;8.80;;;2.40;99.90;;;;;;5012504;28;20187;-74
2023/03/06 03:52:35;;;;;;;14.37;9.10;;;2.30;99.90;;;;;;5013460;28;20254;-72
2023/03/06 03:55:01;;;;;;;16.40;9.17;;;2.30;99.90;;;;;;5012208;28;20924;-73
2023/03/06 03:57:26;;;;;;;15.63;8.70;;;2.30;99.90;;;;;;5011032;28;20441;-73
2023/03/06 03:59:52;;;;;;;16.10;10.10;;;2.30;99.90;;;;;;5012898;28;20201;-74
2023/03/06 04:02:20;;;;;;;16.67;9.37;;;2.30;99.90;;;;;;5013411;28;20209;-74
2023/03/06 04:04:46;;;;;;;18.43;9.87;;;2.30;99.90;;;;;;5013285;28;20677;-72
2023/03/06 04:07:12;;;;;;;13.17;8.60;;;2.30;99.90;;;;;;5010054;28;20474;-73
2023/03/06 04:09:37;;;;;;;15.37;9.20;;;2.30;99.90;;;;;;5010532;28;20454;-74
2023/03/06 04:12:03;;;;;;;18.63;9.37;;;2.30;99.90;;;;;;5012804;28;20568;-74
2023/03/06 04:14:29;;;;;;;17.77;9.23;;;2.30;99.90;;;;;;5013323;28;20188;-76
2023/03/06 04:16:54;;;;;;;15.00;10.17;;;2.40;99.90;;;;;;5010749;28;20225;-73
2023/03/06 04:19:20;;;;;;;13.57;8.23;;;2.30;99.90;;;;;;5002058;28;20409;-74
2023/03/06 04:21:45;;;;;;;15.47;8.77;;;2.30;99.90;;;;;;5012908;28;20688;-73
2023/03/06 04:24:11;;;;;;;25.90;9.80;;;2.30;99.90;;;;;;4997328;28;20197;-73
2023/03/06 04:26:36;;;;;;;16.97;9.07;;;2.30;99.90;;;;;;5012334;28;20299;-74
2023/03/06 04:29:02;;;;;;;21.87;9.47;;;2.30;99.90;;;;;;5011496;28;20193;-74
2023/03/06 04:31:27;;;;;;;16.10;9.43;;;2.30;99.90;;;;;;5011591;28;20299;-73
2023/03/06 04:33:53;;;;;;;21.57;11.83;;;2.30;99.90;;;;;;5012539;28;20765;-73
2023/03/06 04:36:31;;;;;;;22.13;13.97;;;2.30;99.90;;;;;;5012970;28;20189;-74
2023/03/06 04:38:57;;;;;;;18.90;10.43;;;2.30;99.90;;;;;;5007647;28;20208;-75
2023/03/06 04:41:23;;;;;;;16.20;11.10;;;2.20;99.90;;;;;;5004928;28;20892;-73
2023/03/06 04:43:49;;;;;;;13.10;9.23;;;2.20;99.90;;;;;;5012371;28;20196;-75
2023/03/06 04:46:14;;;;;;;16.97;10.23;;;2.10;99.90;;;;;;5012920;28;20748;-73
2023/03/06 04:48:40;;;;;;;17.00;9.03;;;2.20;99.90;;;;;;5010891;28;20252;-73
2023/03/06 04:51:05;;;;;;;19.00;10.43;;;2.20;99.90;;;;;;5011155;28;20910;-73
2023/03/06 04:53:31;;;;;;;14.77;9.87;;;2.20;99.90;;;;;;5012489;28;20267;-73
2023/03/06 04:55:57;;;;;;;16.50;10.10;;;2.20;99.90;;;;;;5012425;28;20225;-73
2023/03/06 04:58:23;;;;;;;19.10;10.87;;;2.20;99.90;;;;;;5010734;28;20284;-73
2023/03/06 05:00:49;;;;;;;16.93;10.03;;;2.20;99.90;;;;;;5011219;28;21030;-73
2023/03/06 05:03:14;;;;;;;13.07;8.53;;;2.20;99.90;;;;;;5012503;28;20193;-73
2023/03/06 05:05:40;;;;;;;15.20;8.83;;;2.20;99.90;;;;;;5012290;28;20209;-73
2023/03/06 05:08:06;;;;;;;18.20;9.00;;;2.20;99.90;;;;;;5007045;28;20239;-72
2023/03/06 05:10:31;;;;;;;15.53;9.63;;;2.20;99.90;;;;;;5012047;28;20199;-74
2023/03/06 05:12:57;;;;;;;12.93;8.90;;;2.20;99.90;;;;;;5006282;28;20183;-75
2023/03/06 05:15:23;;;;;;;17.23;9.67;;;2.20;99.90;;;;;;5014399;28;20544;-75
2023/03/06 05:17:48;;;;;;;12.90;8.67;;;2.20;99.90;;;;;;5007344;28;20234;-72
2023/03/06 05:20:16;;;;;;;14.00;8.20;;;2.20;99.90;;;;;;4994935;28;20189;-74
2023/03/06 05:22:42;;;;;;;15.37;9.70;;;2.20;99.90;;;;;;5011984;28;20639;-74
2023/03/06 05:25:09;;;;;;;12.87;7.33;;;2.20;99.90;;;;;;5011697;28;20543;-74
2023/03/06 05:27:35;;;;;;;17.50;8.87;;;2.20;99.90;;;;;;5006968;28;20479;-74
2023/03/06 05:30:00;;;;;;;11.17;8.00;;;2.20;99.90;;;;;;5011390;28;20435;-73
2023/03/06 05:32:26;;;;;;;15.40;8.13;;;2.20;99.90;;;;;;5011645;28;20207;-73
2023/03/06 05:34:51;;;;;;;10.80;7.60;;;2.20;99.90;;;;;;5011517;28;20196;-72
2023/03/06 05:37:17;;;;;;;13.30;8.03;;;2.20;99.90;;;;;;5007461;28;20191;-73
2023/03/06 05:39:42;;;;;;;11.00;8.00;;;2.20;99.90;;;;;;5011645;28;20780;-72
2023/03/06 05:42:08;;;;;;;18.63;8.57;;;2.30;99.90;;;;;;5011321;28;20695;-74
2023/03/06 05:44:34;;;;;;;12.77;8.43;;;2.30;99.90;;;;;;4996459;28;20200;-73
2023/03/06 05:47:01;;;;;;;18.53;8.87;;;2.30;99.90;;;;;;5006975;28;20245;-74
2023/03/06 05:49:31;;;;;;;11.63;7.53;;;2.40;99.90;;;;;;5005784;28;20428;-74
2023/03/06 05:51:56;;;;;;;14.47;8.13;;;2.30;99.90;;;;;;5011258;28;20480;-73
2023/03/06 05:54:23;;;;;;;17.03;9.10;;;2.40;99.90;;;;;;5011480;28;20459;-73
2023/03/06 05:56:49;;;;;;;14.73;8.03;;;2.40;99.90;;;;;;5006449;28;20327;-73
2023/03/06 05:59:15;;;;;;;16.70;8.63;;;2.40;99.90;;;;;;5005775;28;21003;-72
2023/03/06 06:01:40;;;;;;;15.50;8.73;;;2.40;99.90;;;;;;5011345;28;20512;-73
2023/03/06 06:04:06;;;;;;;12.10;7.70;;;2.40;99.90;;;;;;5011020;28;20246;-72
2023/03/06 06:06:31;;;;;;;13.90;8.50;;;2.40;99.90;;;;;;5009847;28;20236;-72
2023/03/06 06:08:57;;;;;;;15.97;9.10;;;2.40;99.90;;;;;;5003370;28;20650;-72
2023/03/06 06:11:22;;;;;;;25.60;15.10;;;2.50;99.90;;;;;;5011136;28;20212;-73
2023/03/06 06:13:48;;;;;;;16.47;10.47;;;2.40;99.90;;;;;;5010357;28;20649;-73
2023/03/06 06:16:15;;;;;;;12.10;7.67;;;2.40;99.90;;;;;;5010981;28;20186;-73
2023/03/06 06:18:41;;;;;;;12.83;7.30;;;2.50;99.90;;;;;;4996032;28;20189;-73
2023/03/06 06:21:09;;;;;;;11.50;7.80;;;2.50;99.90;;;;;;5009314;28;20447;-73
2023/03/06 06:23:35;;;;;;;14.23;7.53;;;2.50;99.90;;;;;;5005366;28;20541;-73
2023/03/06 06:26:03;;;;;;;13.10;6.97;;;2.60;99.90;;;;;;5009728;28;20466;-72
2023/03/06 06:28:29;;;;;;;19.30;7.87;;;2.60;99.90;;;;;;5009183;28;20212;-73
2023/03/06 06:30:55;;;;;;;13.93;9.17;;;2.60;99.90;;;;;;5005844;28;20460;-73
2023/03/06 06:33:21;;;;;;;13.17;7.27;;;2.70;99.90;;;;;;5010560;28;20429;-72
2023/03/06 06:35:46;;;;;;;12.63;7.73;;;2.70;99.90;;;;;;5011039;28;20602;-72
2023/03/06 06:38:12;;;;;;;11.20;6.97;;;2.80;99.90;;;;;;5001927;28;20835;-74
2023/03/06 06:40:37;;;;;;;13.97;7.70;;;2.80;99.90;;;;;;5005928;28;20227;-73
2023/03/06 06:43:03;;;;;;;14.60;8.23;;;2.80;99.90;;;;;;5010332;28;20218;-72
2023/03/06 06:45:28;;;;;;;12.00;7.70;;;2.80;99.90;;;;;;5010777;28;20223;-73
2023/03/06 06:47:54;;;;;;;12.20;7.33;;;2.90;99.90;;;;;;5002156;28;20214;-72
2023/03/06 06:50:19;;;;;;;16.90;7.63;;;2.90;99.90;;;;;;5005894;28;20192;-71
2023/03/06 06:52:45;;;;;;;13.60;8.40;;;3.00;99.90;;;;;;5010650;28;20189;-72
2023/03/06 06:55:11;;;;;;;12.07;7.07;;;3.00;99.90;;;;;;5010280;28;20258;-72
2023/03/06 06:57:38;;;;;;;13.90;7.20;;;3.00;99.90;;;;;;5010618;28;20195;-73
2023/03/06 07:00:04;;;;;;;15.10;7.50;;;3.10;99.90;;;;;;5005536;28;20434;-73
2023/03/06 07:02:31;;;;;;;14.77;7.90;;;3.20;99.90;;;;;;5010397;28;20606;-72
2023/03/06 07:04:57;;;;;;;15.63;7.90;;;3.20;99.90;;;;;;5010257;28;20442;-72
2023/03/06 07:07:22;;;;;;;13.87;7.00;;;3.20;99.90;;;;;;5010661;28;20876;-72
2023/03/06 07:09:48;;;;;;;9.80;6.33;;;3.30;99.90;;;;;;5006300;28;20479;-73
2023/03/06 07:12:13;;;;;;;11.77;6.80;;;3.30;99.90;;;;;;4995840;28;20214;-73
2023/03/06 07:14:40;;;;;;;10.33;6.37;;;3.30;99.90;;;;;;5010475;28;20552;-73
2023/03/06 07:17:05;;;;;;;10.77;6.77;;;3.40;99.90;;;;;;5010239;28;20198;-73
2023/03/06 07:19:31;;;;;;;10.63;6.93;;;3.40;99.90;;;;;;5005945;28;20448;-73
2023/03/06 07:21:58;;;;;;;12.50;7.00;;;3.40;99.90;;;;;;5004995;28;20209;-72
2023/03/06 07:24:24;;;;;;;11.77;7.23;;;3.50;99.90;;;;;;5012132;28;20191;-73
2023/03/06 07:26:50;;;;;;;13.83;7.33;;;3.50;99.90;;;;;;5014316;28;20854;-75
2023/03/06 07:29:15;;;;;;;12.83;7.47;;;3.50;99.90;;;;;;5010772;28;20192;-73
2023/03/06 07:31:41;;;;;;;16.27;7.80;;;3.60;99.90;;;;;;5016293;28;20317;-73
2023/03/06 07:34:11;;;;;;;13.27;7.57;;;3.70;99.90;;;;;;5015185;28;20273;-73
2023/03/06 07:36:39;;;;;;;11.03;6.20;;;3.70;99.90;;;;;;5014154;28;20219;-72
2023/03/06 07:39:05;;;;;;;10.10;6.53;;;3.80;99.90;;;;;;5010252;28;20449;-72
2023/03/06 07:41:31;;;;;;;9.10;6.30;;;3.80;99.90;;;;;;5003497;28;20471;-73
2023/03/06 07:43:56;;;;;;;14.60;7.77;;;3.90;99.90;;;;;;5013584;28;20440;-70
2023/03/06 07:46:22;;;;;;;11.27;7.23;;;3.90;99.90;;;;;;5013730;28;20265;-73
2023/03/06 07:48:47;;;;;;;11.83;7.00;;;4.00;99.90;;;;;;5011686;28;20528;-73
2023/03/06 07:51:15;;;;;;;11.83;6.80;;;3.90;99.90;;;;;;5012367;28;20263;-72
2023/03/06 07:53:41;;;;;;;10.13;6.43;;;3.90;99.90;;;;;;5013710;28;20200;-72
2023/03/06 07:56:07;;;;;;;13.67;7.80;;;3.90;99.90;;;;;;5013372;28;21068;-72
2023/03/06 07:58:34;;;;;;;14.07;7.57;;;3.90;99.90;;;;;;5013711;28;20183;-72
2023/03/06 08:01:04;;;;;;;11.17;7.20;;;4.00;99.90;;;;;;5010052;28;20454;-73
2023/03/06 08:03:30;;;;;;;15.53;7.70;;;4.00;99.90;;;;;;5013443;28;20943;-73
2023/03/06 08:06:15;;;;;;;11.57;7.80;;;4.10;99.90;;;;;;5013511;28;20479;-72
2023/03/06 08:08:43;;;;;;;13.83;8.50;;;4.20;99.90;;;;;;5001946;28;20748;-73
2023/03/06 08:11:11;;;;;;;12.73;6.50;;;4.30;99.90;;;;;;5010958;28;20451;-73
2023/03/06 08:13:38;;;;;;;18.10;9.10;;;4.30;99.90;;;;;;5013174;28;20432;-75
2023/03/06 08:16:05;;;;;;;10.97;7.83;;;4.40;99.90;;;;;;5012949;28;20442;-73
2023/03/06 08:18:31;;;;;;;18.77;7.17;;;4.50;99.90;;;;;;5013111;28;20432;-73
2023/03/06 08:21:05;;;;;;;13.97;7.50;;;4.60;99.90;;;;;;5010056;28;20456;-72
2023/03/06 08:23:32;;;;;;;14.37;8.97;;;4.70;99.90;;;;;;4999077;28;20193;-75
2023/03/06 08:25:59;;;;;;;11.60;8.40;;;4.70;99.90;;;;;;5011135;28;20444;-73
2023/03/06 08:28:25;;;;;;;12.90;7.60;;;4.90;99.90;;;;;;5005197;28;20603;-73
2023/03/06 08:30:51;;;;;;;14.87;7.90;;;5.00;99.90;;;;;;5009561;28;20438;-72
2023/03/06 08:33:16;;;;;;;12.83;7.00;;;5.10;99.90;;;;;;5012547;28;20929;-72
2023/03/06 08:35:42;;;;;;;13.00;7.47;;;5.20;99.90;;;;;;5011969;28;20642;-73
2023/03/06 08:38:07;;;;;;;10.73;7.30;;;5.40;99.90;;;;;;5003450;28;20194;-73
2023/03/06 08:40:33;;;;;;;10.07;7.17;;;5.50;99.90;;;;;;4998788;28;20194;-72
2023/03/06 08:42:58;;;;;;;11.87;7.70;;;5.60;99.90;;;;;;5012877;28;20191;-73
2023/03/06 08:45:24;;;;;;;10.23;6.70;;;5.60;99.90;;;;;;5012347;28;20234;-73
2023/03/06 08:47:49;;;;;;;12.40;7.53;;;5.80;99.90;;;;;;5012952;28;20214;-73
2023/03/06 08:50:15;;;;;;;10.57;8.20;;;6.00;99.90;;;;;;5005721;28;20195;-73
2023/03/06 08:52:41;;;;;;;10.17;6.83;;;6.10;99.90;;;;;;5012478;28;20767;-73
2023/03/06 08:55:07;;;;;;;9.60;6.13;;;6.10;99.90;;;;;;5012179;28;20229;-73
2023/03/06 08:57:32;;;;;;;12.63;7.43;;;6.20;99.90;;;;;;5012435;28;20206;-73
2023/03/06 08:59:58;;;;;;;8.73;6.50;;;6.40;99.90;;;;;;5005762;28;20993;-73
2023/03/06 09:02:23;;;;;;;13.87;7.23;;;6.30;99.90;;;;;;5012125;28;20235;-73
2023/03/06 09:04:49;;;;;;;12.07;6.90;;;6.40;99.90;;;;;;5012466;28;20656;-73
2023/03/06 09:07:14;;;;;;;10.90;7.03;;;6.40;99.90;;;;;;5010622;28;20217;-74
2023/03/06 09:09:40;;;;;;;13.23;7.00;;;6.40;99.90;;;;;;5000167;28;20412;-73
2023/03/06 09:12:06;;;;;;;10.30;6.80;;;6.40;99.90;;;;;;5006428;28;20700;-74
2023/03/06 09:14:31;;;;;;;13.03;7.40;;;6.50;99.90;;;;;;5012079;28;20519;-72
2023/03/06 09:16:57;;;;;;;10.80;5.50;;;6.40;99.90;;;;;;5012055;28;20201;-73
2023/03/06 09:19:22;;;;;;;10.57;8.10;;;6.20;99.90;;;;;;5003551;28;20348;-72
2023/03/06 09:21:48;;;;;;;14.17;7.33;;;6.10;99.90;;;;;;5000444;28;20750;-73
2023/03/06 09:24:13;;;;;;;9.70;6.47;;;5.90;99.90;;;;;;5011854;28;20198;-73
2023/03/06 09:26:39;;;;;;;9.40;6.23;;;5.80;99.90;;;;;;5002975;28;20303;-73
2023/03/06 09:29:05;;;;;;;9.07;6.50;;;5.70;99.90;;;;;;4999705;28;20198;-73
2023/03/06 09:31:31;;;;;;;11.93;7.40;;;5.70;99.90;;;;;;5011372;28;20220;-73
2023/03/06 09:33:57;;;;;;;12.50;7.67;;;5.80;99.90;;;;;;5012036;28;20661;-73
2023/03/06 09:36:22;;;;;;;10.73;7.60;;;5.80;99.90;;;;;;5010394;28;23218;-73
2023/03/06 09:38:49;;;;;;;11.37;6.87;;;5.80;99.90;;;;;;5001527;28;20948;-73
2023/03/06 09:41:23;;;;;;;7.13;5.33;;;5.70;99.90;;;;;;4996592;28;20298;-73
2023/03/06 09:43:52;;;;;;;11.03;6.80;;;5.70;99.90;;;;;;5012203;28;20437;-73
2023/03/06 09:46:59;;;;;;;11.43;6.30;;;5.60;99.90;;;;;;4993785;28;20449;-74
2023/03/06 09:49:49;;;;;;;12.77;6.00;;;5.50;99.90;;;;;;5002537;28;20438;-73
2023/03/06 09:52:20;;;;;;;10.93;7.57;;;5.50;99.90;;;;;;5011163;28;20448;-73
2023/03/06 09:54:59;;;;;;;11.60;7.27;;;5.60;99.90;;;;;;5006412;28;20435;-72
2023/03/06 09:57:26;;;;;;;10.63;7.20;;;5.60;99.90;;;;;;5009711;28;20519;-73
2023/03/06 09:59:58;;;;;;;10.07;6.97;;;5.60;99.90;;;;;;4995620;28;20433;-73
2023/03/06 10:02:29;;;;;;;10.60;7.70;;;5.50;99.90;;;;;;5010886;28;20493;-73
2023/03/06 10:05:02;;;;;;;13.00;8.13;;;5.30;99.90;;;;;;5008836;28;20450;-73
2023/03/06 10:07:57;;;;;;;8.83;6.13;;;5.30;99.90;;;;;;5003244;28;20812;-73
2023/03/06 10:10:26;;;;;;;9.67;6.50;;;5.30;99.90;;;;;;5002060;28;21006;-72
2023/03/06 10:13:18;;;;;;;9.67;7.03;;;5.30;99.90;;;;;;5006136;28;20495;-73
2023/03/06 10:15:44;;;;;;;12.63;7.87;;;5.20;99.90;;;;;;4998718;28;20449;-74
2023/03/06 10:18:11;;;;;;;10.43;6.93;;;5.30;99.90;;;;;;5010306;28;20480;-72
2023/03/06 10:20:51;;;;;;;13.67;7.40;;;5.30;99.90;;;;;;5001681;28;20892;-73
2023/03/06 10:23:46;;;;;;;14.90;8.43;;;5.40;99.90;;;;;;5008536;28;20449;-73
2023/03/06 10:26:19;;;;;;;16.23;7.40;;;5.60;99.90;;;;;;5010647;28;20433;-74
2023/03/06 10:28:59;;;;;;;10.70;6.90;;;5.70;99.90;;;;;;5005829;28;20443;-73
2023/03/06 10:31:26;;;;;;;11.83;6.70;;;5.70;99.90;;;;;;5003744;28;20465;-75
2023/03/06 10:34:18;;;;;;;9.50;6.53;;;5.80;99.90;;;;;;5010974;28;20434;-73
2023/03/06 10:36:43;;;;;;;9.10;7.07;;;5.80;99.90;;;;;;4995467;28;20460;-73
2023/03/06 10:39:19;;;;;;;11.60;7.80;;;5.90;99.90;;;;;;5002592;28;20441;-73
2023/03/06 10:41:45;;;;;;;9.87;6.77;;;5.80;99.90;;;;;;5004269;28;20272;-73
2023/03/06 10:44:11;;;;;;;12.40;7.43;;;5.90;99.90;;;;;;5010413;28;20430;-73
2023/03/06 10:46:38;;;;;;;9.40;7.30;;;5.80;99.90;;;;;;5010557;28;20449;-73
2023/03/06 10:49:20;;;;;;;8.20;6.40;;;5.70;99.90;;;;;;5003658;28;20196;-73
2023/03/06 10:52:08;;;;;;;9.23;6.77;;;5.80;99.90;;;;;;4993289;28;20958;-73
2023/03/06 10:54:40;;;;;;;11.10;6.50;;;5.70;99.90;;;;;;4994955;28;20413;-73
2023/03/06 10:57:19;;;;;;;9.50;6.70;;;5.80;99.90;;;;;;5010798;28;20435;-72
2023/03/06 11:00:37;;;;;;;9.17;6.87;;;5.80;99.90;;;;;;4992972;28;20445;-73
2023/03/06 11:03:22;;;;;;;10.67;6.70;;;5.80;99.90;;;;;;4999815;28;20446;-73
2023/03/06 11:06:29;;;;;;;11.20;6.93;;;6.00;99.90;;;;;;5002968;28;20901;-73
2023/03/06 11:09:12;;;;;;;9.83;6.97;;;6.30;99.90;;;;;;4999143;28;20448;-72
2023/03/06 11:11:37;;;;;;;13.50;7.03;;;6.30;99.90;;;;;;4994286;28;20465;-73
2023/03/06 11:14:21;;;;;;;10.10;6.60;;;6.40;99.90;;;;;;5014445;28;20433;-73
2023/03/06 11:16:52;;;;;;;7.03;5.03;;;6.40;99.90;;;;;;5002001;28;20567;-74
2023/03/06 11:19:28;;;;;;;11.13;6.77;;;6.40;99.90;;;;;;5005793;28;20442;-74
2023/03/06 11:22:04;;;;;;;9.00;6.53;;;6.40;99.90;;;;;;5010100;28;20466;-73
2023/03/06 11:24:40;;;;;;;11.13;7.13;;;6.40;99.90;;;;;;5013794;28;20522;-74
2023/03/06 11:27:22;;;;;;;10.80;6.37;;;6.50;99.90;;;;;;5014243;28;20479;-74
2023/03/06 11:29:50;;;;;;;10.33;6.73;;;6.60;99.90;;;;;;4994968;28;20440;-73
2023/03/06 11:32:22;;;;;;;12.50;6.57;;;6.70;99.90;;;;;;5007813;28;20939;-73
2023/03/06 11:35:01;;;;;;;10.10;6.20;;;6.70;99.90;;;;;;5014057;28;20438;-73
2023/03/06 11:37:56;;;;;;;8.40;6.67;;;6.70;99.90;;;;;;5013665;28;21023;-73
2023/03/06 11:40:39;;;;;;;14.63;7.77;;;6.60;99.90;;;;;;5011558;28;20937;-73
2023/03/06 11:43:42;;;;;;;14.23;6.93;;;6.70;99.90;;;;;;5005796;28;20449;-74
2023/03/06 11:46:27;;;;;;;13.77;7.57;;;6.70;99.90;;;;;;5001481;28;20445;-73
2023/03/06 11:48:58;;;;;;;11.73;6.70;;;6.90;99.90;;;;;;5000942;28;20499;-74
2023/03/06 11:51:29;;;;;;;8.47;5.80;;;7.10;99.90;;;;;;5007415;28;20455;-74
2023/03/06 11:53:57;;;;;;;10.17;6.90;;;7.20;99.90;;;;;;5013704;28;20447;-73
2023/03/06 11:56:30;;;;;;;11.97;8.20;;;7.30;99.90;;;;;;5008213;28;20447;-73
2023/03/06 11:59:11;;;;;;;13.40;7.17;;;7.30;99.90;;;;;;5011958;28;20795;-73
2023/03/06 12:01:36;;;;;;;10.30;6.73;;;7.30;99.90;;;;;;5007834;28;20445;-73
2023/03/06 12:04:31;;;;;;;11.77;7.17;;;7.40;99.90;;;;;;5013737;28;20450;-73
2023/03/06 12:07:24;;;;;;;12.37;6.43;;;7.60;99.90;;;;;;5002900;28;20208;-74
2023/03/06 12:10:22;;;;;;;7.67;5.90;;;7.70;99.90;;;;;;4993572;28;20437;-73
2023/03/06 12:13:16;;;;;;;9.30;6.30;;;7.50;99.90;;;;;;5004283;28;20455;-73
2023/03/06 12:15:51;;;;;;;11.50;7.17;;;7.70;99.90;;;;;;4998496;28;20628;-73
2023/03/06 12:18:35;;;;;;;10.00;7.07;;;7.70;99.90;;;;;;5011297;28;20430;-74
2023/03/06 12:21:18;;;;;;;10.50;7.80;;;7.80;99.90;;;;;;5009364;28;20489;-74
2023/03/06 12:24:11;;;;;;;9.20;6.37;;;7.80;99.90;;;;;;4998739;28;20434;-73
2023/03/06 12:26:51;;;;;;;8.93;6.40;;;7.50;99.90;;;;;;5013751;28;20442;-74
2023/03/06 12:29:42;;;;;;;11.77;7.03;;;7.40;99.90;;;;;;5012372;28;20474;-73
2023/03/06 12:32:31;;;;;;;8.93;5.70;;;7.40;99.90;;;;;;5013137;28;20494;-73
2023/03/06 12:35:31;;;;;;;11.37;6.93;;;7.40;99.90;;;;;;5001864;28;20519;-72
2023/03/06 12:38:28;;;;;;;12.00;7.30;;;7.30;99.90;;;;;;5001783;28;20568;-73
2023/03/06 12:41:06;;;;;;;9.83;7.60;;;7.20;99.90;;;;;;5000569;28;20446;-74
2023/03/06 12:43:56;;;;;;;8.53;6.33;;;7.10;99.90;;;;;;5012214;28;20423;-73
2023/03/06 12:46:24;;;;;;;13.67;6.27;;;7.00;99.90;;;;;;5012531;28;20432;-74
2023/03/06 12:49:25;;;;;;;10.43;6.67;;;7.00;99.90;;;;;;5011598;28;20435;-73
2023/03/06 12:51:53;;;;;;;9.80;6.50;;;7.00;99.90;;;;;;4991653;28;20495;-73
2023/03/06 12:54:23;;;;;;;10.50;6.13;;;7.20;99.90;;;;;;5012350;28;20557;-74
2023/03/06 12:56:49;;;;;;;11.20;6.80;;;7.30;99.90;;;;;;5012479;28;20494;-74
2023/03/06 12:59:53;;;;;;;11.37;6.50;;;7.30;99.90;;;;;;5003380;28;20440;-71
2023/03/06 13:02:38;;;;;;;8.47;6.27;;;7.40;99.90;;;;;;4953197;28;20466;-74
2023/03/06 13:05:12;;;;;;;17.43;6.80;;;7.50;99.90;;;;;;4952130;29;20453;-73
2023/03/06 13:07:57;;;;;;;9.03;5.87;;;7.60;99.90;;;;;;4989332;28;20560;-73
2023/03/06 13:10:33;;;;;;;8.63;6.80;;;7.50;99.90;;;;;;5003714;28;20446;-73
2023/03/06 13:13:23;;;;;;;8.17;5.90;;;7.70;99.90;;;;;;5012296;28;20432;-73
2023/03/06 13:16:25;;;;;;;10.53;5.93;;;7.70;99.90;;;;;;4998477;28;20857;-73
2023/03/06 13:19:01;;;;;;;9.27;6.40;;;7.70;99.90;;;;;;4994317;28;20431;-73
2023/03/06 13:21:45;;;;;;;14.53;6.77;;;7.60;99.90;;;;;;5009233;28;20452;-73
2023/03/06 13:24:20;;;;;;;9.33;6.80;;;7.60;99.90;;;;;;5012045;28;20966;-73
2023/03/06 13:26:45;;;;;;;10.23;6.60;;;7.60;99.90;;;;;;4997199;28;20466;-73
2023/03/06 13:29:36;;;;;;;8.27;5.53;;;7.60;99.90;;;;;;5008264;28;20510;-73
2023/03/06 13:32:01;;;;;;;8.13;6.20;;;7.70;99.90;;;;;;5001239;28;20220;-73
2023/03/06 13:34:39;;;;;;;9.30;5.43;;;7.60;99.90;;;;;;5011683;28;20439;-73
2023/03/06 13:37:17;;;;;;;8.63;4.97;;;7.60;99.90;;;;;;5012081;28;20389;-73
2023/03/06 13:39:57;;;;;;;11.87;5.63;;;7.50;99.90;;;;;;4998419;28;20437;-73
2023/03/06 13:42:34;;;;;;;13.00;6.20;;;7.50;99.90;;;;;;5010503;28;20973;-73
2023/03/06 13:45:15;;;;;;;10.40;5.77;;;7.50;99.90;;;;;;5011872;28;20439;-75
2023/03/06 13:47:49;;;;;;;9.30;5.97;;;7.40;99.90;;;;;;5011225;28;20471;-73
2023/03/06 13:50:29;;;;;;;10.20;4.93;;;7.30;99.90;;;;;;5007893;28;20950;-73
2023/03/06 13:53:33;;;;;;;11.13;6.53;;;7.30;99.90;;;;;;4998852;28;20433;-72
2023/03/06 13:56:17;;;;;;;10.50;5.67;;;7.30;99.90;;;;;;4999874;28;20433;-74
2023/03/06 13:59:14;;;;;;;8.63;6.03;;;7.20;99.90;;;;;;5007506;28;20468;-73
2023/03/06 14:02:17;;;;;;;9.00;5.67;;;7.30;99.90;;;;;;5010921;28;20999;-73
2023/03/06 14:04:57;;;;;;;8.27;5.37;;;7.10;99.90;;;;;;5009717;28;20439;-73
2023/03/06 14:07:24;;;;;;;11.07;6.90;;;7.10;99.90;;;;;;5010817;28;20524;-73
2023/03/06 14:09:58;;;;;;;7.63;5.07;;;7.10;99.90;;;;;;5007195;28;20493;-73
2023/03/06 14:12:29;;;;;;;6.57;5.20;;;7.10;99.90;;;;;;5010711;28;20949;-74
2023/03/06 14:14:58;;;;;;;9.17;5.70;;;7.10;99.90;;;;;;5011189;28;21077;-74
2023/03/06 14:17:29;;;;;;;9.40;5.87;;;6.90;99.90;;;;;;5010801;28;20446;-73
2023/03/06 14:20:15;;;;;;;6.97;5.57;;;6.90;99.90;;;;;;5007508;28;20558;-75
2023/03/06 14:22:41;;;;;;;9.77;6.67;;;6.90;99.90;;;;;;5004054;28;20459;-73
2023/03/06 14:25:19;;;;;;;12.07;7.33;;;7.00;99.90;;;;;;5001176;28;20442;-71
2023/03/06 14:27:50;;;;;;;9.10;5.90;;;6.90;99.90;;;;;;5010714;28;20219;-73
2023/03/06 14:30:21;;;;;;;9.23;6.73;;;6.90;99.90;;;;;;5007782;28;20441;-73
2023/03/06 14:32:49;;;;;;;8.10;5.90;;;6.80;99.90;;;;;;5006051;28;20933;-73
2023/03/06 14:35:26;;;;;;;11.37;6.97;;;6.70;99.90;;;;;;5010397;28;20924;-73
2023/03/06 14:37:54;;;;;;;12.20;6.70;;;6.70;99.90;;;;;;4996320;28;20427;-73